createdAt,value
2023-05-16T00:07:17.928Z,7.27
2023-05-16T00:09:47.469Z,6.03
2023-05-16T00:12:17.732Z,6.40
2023-05-16T00:14:45.730Z,6.03
2023-05-16T00:17:14.683Z,7.53
2023-05-16T00:19:44.601Z,6.63
2023-05-16T00:22:12.908Z,7.70
2023-05-16T00:24:42.463Z,6.40
2023-05-16T00:27:10.543Z,6.63
2023-05-16T00:29:38.564Z,4.87
2023-05-16T00:32:08.747Z,6.37
2023-05-16T00:34:37.419Z,7.20
2023-05-16T00:37:06.175Z,7.50
2023-05-16T00:39:35.017Z,8.20
2023-05-16T00:42:05.522Z,7.40
2023-05-16T00:44:33.604Z,6.93
2023-05-16T00:47:02.710Z,8.43
2023-05-16T00:49:31.042Z,8.80
2023-05-16T00:52:00.184Z,10.33
2023-05-16T00:54:29.583Z,8.87
2023-05-16T00:56:58.440Z,10.27
2023-05-16T00:59:29.078Z,8.77
2023-05-16T01:01:57.661Z,8.93
2023-05-16T01:04:27.806Z,9.20
2023-05-16T01:06:57.953Z,8.93
2023-05-16T01:09:26.111Z,9.00
2023-05-16T01:12:03.853Z,8.83
2023-05-16T01:14:50.750Z,8.87
2023-05-16T01:17:27.908Z,7.60
2023-05-16T01:20:12.134Z,10.13
2023-05-16T01:22:58.196Z,11.33
2023-05-16T01:25:45.563Z,11.87
2023-05-16T01:32:47.245Z,12.93
2023-05-16T01:35:18.438Z,8.77
2023-05-16T01:37:58.770Z,16.63
2023-05-16T01:40:37.952Z,14.27
2023-05-16T01:43:14.114Z,17.93
2023-05-16T01:50:18.193Z,17.40
2023-05-16T01:52:52.125Z,16.10
2023-05-16T01:55:30.722Z,17.47
2023-05-16T01:58:03.847Z,16.47
2023-05-16T02:00:32.953Z,16.67
2023-05-16T02:03:01.363Z,17.53
2023-05-16T02:05:30.802Z,17.17
2023-05-16T02:08:00.284Z,14.70
2023-05-16T02:24:00.653Z,20.10
2023-05-16T02:26:28.749Z,20.00
2023-05-16T02:28:57.372Z,20.73
2023-05-16T02:31:29.909Z,20.00
2023-05-16T02:33:58.708Z,21.23
2023-05-16T02:36:27.004Z,20.47
2023-05-16T02:38:55.379Z,19.83
2023-05-16T02:41:25.377Z,21.63
2023-05-16T02:43:53.384Z,22.33
2023-05-16T02:46:24.227Z,19.87
2023-05-16T02:48:53.072Z,20.67
2023-05-16T02:51:23.549Z,21.93
2023-05-16T02:53:52.796Z,21.57
2023-05-16T02:56:21.724Z,21.90
2023-05-16T02:58:52.048Z,23.00
2023-05-16T03:01:20.419Z,21.27
2023-05-16T03:03:49.071Z,21.93
2023-05-16T03:06:17.594Z,24.57
2023-05-16T03:08:45.779Z,23.67
2023-05-16T03:11:17.415Z,23.50
2023-05-16T03:13:46.236Z,23.37
2023-05-16T03:16:16.479Z,25.07
2023-05-16T03:18:45.441Z,24.77
2023-05-16T03:21:13.493Z,23.37
2023-05-16T03:23:42.058Z,23.47
2023-05-16T03:26:10.213Z,21.00
2023-05-16T03:28:38.707Z,23.70
2023-05-16T03:31:06.901Z,23.43
2023-05-16T03:33:36.377Z,23.77
2023-05-16T03:36:06.816Z,24.60
2023-05-16T03:38:35.199Z,23.90
2023-05-16T03:41:03.358Z,25.20
2023-05-16T03:43:31.408Z,23.63
2023-05-16T03:45:59.610Z,23.50
2023-05-16T03:48:28.872Z,22.90
2023-05-16T03:50:58.695Z,23.10
2023-05-16T03:53:27.020Z,19.40
2023-05-16T03:55:55.389Z,17.80
2023-05-16T03:58:23.752Z,22.57
2023-05-16T04:00:52.187Z,17.33
2023-05-16T04:03:20.234Z,18.50
2023-05-16T04:05:48.782Z,18.97
2023-05-16T04:08:18.111Z,17.70
2023-05-16T04:10:46.497Z,18.87
2023-05-16T04:13:15.735Z,18.83
2023-05-16T04:15:43.827Z,18.87
2023-05-16T04:18:12.796Z,18.73
2023-05-16T04:20:40.863Z,19.60
2023-05-16T04:23:10.897Z,18.33
2023-05-16T04:25:40.797Z,19.70
2023-05-16T04:28:09.021Z,16.93
2023-05-16T04:30:37.874Z,18.77
2023-05-16T04:33:06.114Z,18.27
2023-05-16T04:35:34.499Z,17.53
2023-05-16T04:38:02.571Z,18.77
2023-05-16T04:40:30.556Z,18.47
2023-05-16T04:43:00.115Z,18.77
2023-05-16T04:45:28.926Z,17.03
2023-05-16T04:47:57.438Z,18.93
2023-05-16T04:50:25.559Z,17.73
2023-05-16T04:52:56.361Z,17.60
2023-05-16T04:55:24.794Z,17.83
2023-05-16T04:57:53.039Z,18.23
2023-05-16T05:00:23.114Z,18.10
2023-05-16T05:02:51.151Z,17.53
2023-05-16T05:05:19.479Z,17.00
2023-05-16T05:07:48.642Z,16.37
2023-05-16T05:15:01.742Z,16.93
2023-05-16T05:17:31.216Z,15.93
2023-05-16T05:20:01.772Z,16.13
2023-05-16T05:22:30.829Z,15.07
2023-05-16T05:24:59.155Z,16.87
2023-05-16T05:27:27.163Z,14.97
2023-05-16T05:29:56.156Z,17.30
2023-05-16T05:32:24.264Z,17.53
2023-05-16T05:34:53.623Z,16.97
2023-05-16T05:37:21.932Z,17.47
2023-05-16T05:39:50.328Z,16.53
2023-05-16T05:42:18.831Z,17.47
2023-05-16T05:44:46.797Z,14.87
2023-05-16T05:47:15.546Z,17.33
2023-05-16T05:49:44.089Z,15.03
2023-05-16T05:52:14.416Z,44.47
2023-05-16T05:54:42.511Z,19.73
2023-05-16T05:57:11.625Z,21.17
2023-05-16T05:59:39.620Z,16.40
2023-05-16T06:02:09.597Z,16.60
2023-05-16T06:04:37.719Z,16.27
2023-05-16T06:07:07.292Z,15.37
2023-05-16T06:09:36.877Z,15.40
2023-05-16T06:12:05.876Z,14.37
2023-05-16T06:14:34.300Z,15.53
2023-05-16T06:17:02.700Z,14.20
2023-05-16T06:19:30.826Z,14.97
2023-05-16T06:21:59.336Z,15.30
2023-05-16T06:24:29.748Z,15.53
2023-05-16T06:26:59.527Z,15.23
2023-05-16T06:29:27.510Z,15.53
2023-05-16T06:31:56.069Z,16.00
2023-05-16T06:34:28.462Z,16.63
2023-05-16T06:36:56.903Z,16.10
2023-05-16T06:39:24.973Z,16.10
2023-05-16T06:51:39.194Z,13.40
2023-05-16T06:54:07.442Z,13.90
2023-05-16T06:56:35.579Z,14.40
2023-05-16T06:59:03.638Z,14.30
2023-05-16T07:01:31.970Z,14.10
2023-05-16T07:04:00.168Z,14.80
2023-05-16T07:06:28.389Z,13.80
2023-05-16T07:08:57.789Z,14.03
2023-05-16T07:11:26.313Z,11.77
2023-05-16T07:13:54.381Z,13.47
2023-05-16T07:16:22.818Z,12.93
2023-05-16T07:18:51.756Z,12.00
2023-05-16T07:21:19.860Z,11.67
2023-05-16T07:23:47.930Z,12.17
2023-05-16T07:26:17.829Z,11.47
2023-05-16T07:28:46.692Z,10.80
2023-05-16T07:31:14.749Z,10.47
2023-05-16T07:33:43.132Z,10.87
2023-05-16T07:36:16.862Z,9.50
2023-05-16T07:38:45.831Z,11.83
2023-05-16T07:41:13.941Z,10.00
2023-05-16T07:43:43.324Z,10.47
2023-05-16T07:46:12.354Z,10.73
2023-05-16T07:48:41.179Z,9.53
2023-05-16T07:51:09.196Z,9.07
2023-05-16T07:53:37.553Z,9.00
2023-05-16T07:56:08.647Z,8.60
2023-05-16T07:58:36.971Z,7.00
2023-05-16T08:01:07.181Z,7.30
2023-05-16T08:03:36.556Z,7.57
2023-05-16T08:06:05.832Z,6.23
2023-05-16T08:08:34.048Z,6.10
2023-05-16T08:11:02.340Z,4.97
2023-05-16T08:13:31.729Z,4.60
2023-05-16T08:15:59.909Z,4.50
2023-05-16T08:18:29.391Z,4.60
2023-05-16T08:20:58.327Z,4.87
2023-05-16T08:23:26.483Z,3.33
2023-05-16T08:25:55.477Z,3.80
2023-05-16T08:28:24.244Z,3.73
2023-05-16T08:30:52.462Z,3.30
2023-05-16T08:33:21.114Z,3.23
2023-05-16T08:35:54.098Z,3.97
2023-05-16T08:38:22.579Z,3.37
2023-05-16T08:40:51.225Z,3.00
2023-05-16T08:43:19.988Z,3.77
2023-05-16T08:45:48.543Z,3.73
2023-05-16T08:48:19.499Z,3.20
2023-05-16T08:50:48.457Z,2.90
2023-05-16T08:53:27.762Z,2.70
2023-05-16T08:55:57.428Z,2.60
2023-05-16T08:58:26.820Z,3.03
2023-05-16T09:00:56.589Z,2.20
2023-05-16T09:03:25.896Z,3.40
2023-05-16T09:05:53.986Z,3.10
2023-05-16T09:08:24.299Z,3.00
2023-05-16T09:10:53.466Z,2.40
2023-05-16T09:13:21.817Z,2.43
2023-05-16T09:16:10.629Z,2.67
2023-05-16T09:18:39.671Z,2.10
2023-05-16T09:21:08.687Z,2.07
2023-05-16T09:23:38.934Z,2.40
2023-05-16T09:26:08.738Z,2.20
2023-05-16T09:28:39.436Z,2.40
2023-05-16T09:31:23.234Z,1.97
2023-05-16T09:33:51.302Z,2.20
2023-05-16T09:36:19.678Z,2.47
2023-05-16T09:38:51.117Z,2.10
2023-05-16T09:41:19.760Z,3.03
2023-05-16T09:43:48.231Z,2.27
2023-05-16T09:46:17.516Z,2.33
2023-05-16T09:48:48.478Z,2.10
2023-05-16T09:51:16.794Z,1.60
2023-05-16T09:53:45.083Z,1.80
2023-05-16T09:56:17.315Z,2.07
2023-05-16T09:58:47.303Z,21.40
2023-05-16T10:01:15.950Z,15.30
2023-05-16T10:03:44.738Z,1.50
2023-05-16T10:06:14.845Z,3.70
2023-05-16T10:08:44.551Z,1.90
2023-05-16T10:11:16.793Z,2.70
2023-05-16T10:13:50.501Z,2.83
2023-05-16T10:16:23.870Z,1.40
2023-05-16T10:18:53.360Z,5.03
2023-05-16T10:21:27.239Z,3.90
2023-05-16T10:23:59.704Z,1.67
2023-05-16T10:26:30.937Z,1.60
2023-05-16T10:28:59.321Z,1.30
2023-05-16T10:31:30.152Z,1.40
2023-05-16T10:33:58.774Z,1.30
2023-05-16T10:36:27.846Z,1.33
2023-05-16T10:38:57.530Z,1.93
2023-05-16T10:41:27.001Z,2.00
2023-05-16T10:44:01.607Z,2.20
2023-05-16T10:46:30.337Z,2.40
2023-05-16T10:48:59.122Z,1.90
2023-05-16T10:51:39.366Z,1.70
2023-05-16T10:54:10.710Z,2.00
2023-05-16T10:56:39.472Z,3.20
2023-05-16T10:59:26.533Z,2.37
2023-05-16T11:01:56.434Z,7.97
2023-05-16T11:04:24.755Z,18.40
2023-05-16T11:06:56.997Z,8.00
2023-05-16T11:09:28.752Z,4.77
2023-05-16T11:12:01.428Z,4.57
2023-05-16T11:14:39.464Z,3.70
2023-05-16T11:17:12.670Z,1.97
2023-05-16T11:19:44.663Z,2.80
2023-05-16T11:22:27.819Z,2.63
2023-05-16T11:25:00.625Z,2.23
2023-05-16T11:27:31.821Z,2.37
2023-05-16T11:30:13.286Z,2.40
2023-05-16T11:32:45.433Z,2.60
2023-05-16T11:35:16.845Z,6.40
2023-05-16T11:37:47.274Z,2.70
2023-05-16T11:40:17.329Z,2.20
2023-05-16T11:42:48.827Z,1.90
2023-05-16T11:45:21.137Z,1.73
2023-05-16T11:47:50.687Z,1.60
2023-05-16T11:50:22.482Z,1.20
2023-05-16T11:52:56.681Z,0.90
2023-05-16T11:55:41.022Z,1.07
2023-05-16T11:58:12.228Z,1.60
2023-05-16T12:00:52.454Z,1.20
2023-05-16T12:03:21.849Z,1.43
2023-05-16T12:05:54.405Z,1.10
2023-05-16T12:08:23.736Z,1.20
2023-05-16T12:10:54.074Z,1.70
2023-05-16T12:13:25.512Z,1.30
2023-05-16T12:15:56.101Z,1.13
2023-05-16T12:18:26.306Z,1.50
2023-05-16T12:20:54.579Z,1.50
2023-05-16T12:23:23.315Z,2.13
2023-05-16T12:25:53.789Z,1.60
2023-05-16T12:28:22.275Z,1.70
2023-05-16T12:30:51.437Z,2.10
2023-05-16T12:33:21.876Z,2.70
2023-05-16T12:35:51.700Z,1.40
2023-05-16T12:38:21.967Z,2.47
2023-05-16T12:40:50.496Z,1.23
2023-05-16T12:43:21.916Z,3.20
2023-05-16T12:45:56.948Z,1.73
2023-05-16T12:48:35.658Z,1.60
2023-05-16T12:51:14.647Z,1.20
2023-05-16T12:53:54.477Z,1.10
2023-05-16T12:56:29.973Z,1.80
2023-05-16T12:58:58.375Z,1.20
2023-05-16T13:01:26.537Z,1.37
2023-05-16T13:03:56.412Z,1.43
2023-05-16T13:06:24.630Z,1.30
2023-05-16T13:08:52.716Z,1.30
2023-05-16T13:11:20.934Z,1.10
2023-05-16T13:13:49.393Z,1.60
2023-05-16T13:16:17.566Z,1.67
2023-05-16T13:18:45.944Z,1.67
2023-05-16T13:21:16.086Z,0.90
2023-05-16T13:23:44.631Z,1.03
2023-05-16T13:26:12.923Z,1.30
2023-05-16T13:28:40.993Z,1.77
2023-05-16T13:31:09.911Z,1.30
2023-05-16T13:33:38.364Z,1.37
2023-05-16T13:36:09.027Z,2.00
2023-05-16T13:38:39.346Z,2.10
2023-05-16T13:41:07.457Z,2.07
2023-05-16T13:43:35.645Z,2.00
2023-05-16T13:46:04.234Z,2.00
2023-05-16T13:48:32.948Z,2.70
2023-05-16T13:51:01.290Z,2.13
2023-05-16T13:53:29.357Z,3.37
2023-05-16T13:55:59.081Z,2.70
2023-05-16T13:58:27.270Z,2.97
2023-05-16T14:00:56.345Z,2.67
2023-05-16T14:03:24.852Z,1.50
2023-05-16T14:05:53.035Z,2.47
2023-05-16T14:08:21.196Z,1.80
2023-05-16T14:10:49.242Z,1.90
2023-05-16T14:13:18.648Z,1.93
2023-05-16T14:15:47.537Z,2.20
2023-05-16T14:18:16.825Z,1.70
2023-05-16T14:20:45.196Z,2.40
2023-05-16T14:23:13.267Z,1.63
2023-05-16T14:25:41.806Z,2.30
2023-05-16T14:28:09.872Z,2.07
2023-05-16T14:30:40.423Z,2.60
2023-05-16T14:33:08.529Z,2.40
2023-05-16T14:35:38.337Z,2.00
2023-05-16T14:38:07.355Z,2.40
2023-05-16T14:40:35.921Z,1.60
2023-05-16T14:43:05.058Z,2.13
2023-05-16T14:45:33.791Z,2.30
2023-05-16T14:48:03.504Z,2.00
2023-05-16T14:50:32.184Z,2.07
2023-05-16T14:53:01.016Z,3.73
2023-05-16T14:55:29.412Z,3.10
2023-05-16T14:57:59.985Z,4.40
2023-05-16T15:00:28.840Z,3.53
2023-05-16T15:02:57.730Z,2.90
2023-05-16T15:05:29.248Z,2.10
2023-05-16T15:07:58.327Z,2.30
2023-05-16T15:10:27.253Z,3.30
2023-05-16T15:12:55.880Z,1.90
2023-05-16T15:15:24.478Z,1.90
2023-05-16T15:17:54.194Z,1.90
2023-05-16T15:20:23.837Z,2.97
2023-05-16T15:22:53.317Z,2.03
2023-05-16T15:25:22.111Z,3.00
2023-05-16T15:27:50.319Z,2.07
2023-05-16T15:30:19.129Z,2.73
2023-05-16T15:32:47.193Z,2.63
2023-05-16T15:35:15.748Z,2.17
2023-05-16T15:37:44.114Z,3.80
2023-05-16T15:40:15.483Z,3.87
2023-05-16T15:42:44.326Z,3.37
2023-05-16T15:45:15.182Z,1.60
2023-05-16T15:47:43.375Z,2.40
2023-05-16T15:50:12.518Z,2.83
2023-05-16T15:52:41.941Z,2.23
2023-05-16T15:55:11.949Z,2.23
2023-05-16T15:57:43.805Z,2.47
2023-05-16T16:00:13.674Z,2.20
2023-05-16T16:02:44.862Z,2.57
2023-05-16T16:05:13.348Z,3.20
2023-05-16T16:07:45.987Z,2.20
2023-05-16T16:10:14.104Z,3.27
2023-05-16T16:12:43.485Z,3.37
2023-05-16T16:15:12.775Z,2.40
2023-05-16T16:17:40.926Z,2.87
2023-05-16T16:20:11.158Z,3.20
2023-05-16T16:22:39.440Z,5.53
2023-05-16T16:25:08.857Z,6.20
2023-05-16T16:27:37.547Z,9.47
2023-05-16T16:30:09.659Z,4.10
2023-05-16T16:32:37.917Z,3.37
2023-05-16T16:35:07.800Z,3.07
2023-05-16T16:37:36.641Z,2.90
2023-05-16T16:40:06.024Z,3.87
2023-05-16T16:42:34.266Z,3.47
2023-05-16T16:45:02.890Z,2.90
2023-05-16T16:47:33.038Z,6.27
2023-05-16T16:50:01.354Z,3.28
2023-05-16T16:52:30.533Z,3.40
2023-05-16T16:54:58.607Z,2.88
2023-05-16T16:57:28.691Z,2.47
2023-05-16T16:59:59.430Z,2.58
2023-05-16T17:02:28.580Z,2.10
2023-05-16T17:04:58.116Z,2.13
2023-05-16T17:07:26.292Z,1.60
2023-05-16T17:09:56.436Z,1.93
2023-05-16T17:12:28.270Z,1.90
2023-05-16T17:14:57.243Z,1.90
2023-05-16T17:17:27.514Z,1.95
2023-05-16T17:19:56.972Z,3.25
2023-05-16T17:22:25.320Z,2.67
2023-05-16T17:24:54.013Z,2.33
2023-05-16T17:28:42.464Z,3.15
2023-05-16T17:31:11.181Z,2.40
2023-05-16T17:33:39.351Z,3.00
2023-05-16T17:36:09.880Z,3.03
2023-05-16T17:38:37.935Z,2.90
2023-05-16T17:41:06.177Z,3.43
2023-05-16T17:43:35.715Z,2.93
2023-05-16T17:46:03.966Z,3.03
2023-05-16T17:48:32.890Z,2.87
2023-05-16T17:51:02.294Z,4.90
2023-05-16T17:53:31.939Z,3.88
2023-05-16T17:56:01.425Z,3.47
2023-05-16T17:58:32.548Z,4.50
2023-05-16T18:05:19.753Z,3.33
2023-05-16T18:07:47.927Z,4.03
2023-05-16T18:10:17.437Z,3.60
2023-05-16T18:12:45.917Z,3.23
2023-05-16T18:15:15.216Z,4.50
2023-05-16T18:17:43.416Z,6.90
2023-05-16T18:20:13.313Z,5.10
2023-05-16T18:22:43.648Z,6.43
2023-05-16T18:25:12.565Z,6.60
2023-05-16T18:27:42.447Z,6.20
2023-05-16T18:30:13.053Z,3.30
2023-05-16T18:32:41.494Z,3.30
2023-05-16T18:35:10.879Z,6.87
2023-05-16T18:37:39.066Z,3.77
2023-05-16T18:40:09.639Z,6.43
2023-05-16T18:42:37.988Z,6.03
2023-05-16T18:45:09.648Z,3.70
2023-05-16T18:47:38.357Z,4.00
2023-05-16T18:50:08.260Z,5.83
2023-05-16T18:52:36.913Z,5.43
2023-05-16T18:55:06.445Z,5.93
2023-05-16T18:57:34.825Z,3.23
2023-05-16T19:00:03.942Z,4.97
2023-05-16T19:02:41.743Z,4.17
2023-05-16T19:05:11.455Z,5.10
2023-05-16T19:07:39.869Z,4.63
2023-05-16T19:10:09.772Z,5.70
2023-05-16T19:12:38.353Z,4.50
2023-05-16T19:15:10.275Z,4.93
2023-05-16T19:17:41.598Z,6.63
2023-05-16T19:20:12.001Z,3.83
2023-05-16T19:22:40.355Z,7.33
2023-05-16T19:25:09.507Z,5.47
2023-05-16T19:27:37.447Z,6.80
2023-05-16T19:30:07.417Z,3.97
2023-05-16T19:32:35.637Z,4.20
2023-05-16T19:35:07.437Z,6.50
2023-05-16T19:37:35.728Z,6.10
2023-05-16T19:40:04.640Z,4.30
2023-05-16T19:42:32.934Z,4.73
2023-05-16T19:45:01.224Z,4.63
2023-05-16T19:47:29.388Z,5.47
2023-05-16T19:49:57.759Z,3.77
2023-05-16T19:52:27.236Z,4.20
2023-05-16T19:54:57.533Z,5.30
2023-05-16T19:57:26.304Z,4.50
2023-05-16T19:59:55.827Z,4.73
2023-05-16T20:02:24.971Z,4.73
2023-05-16T20:04:53.902Z,5.70
2023-05-16T20:07:23.068Z,5.27
2023-05-16T20:09:52.723Z,6.20
2023-05-16T20:12:21.165Z,5.83
2023-05-16T20:14:49.419Z,5.30
2023-05-16T20:17:17.930Z,5.43
2023-05-16T20:19:47.240Z,5.47
2023-05-16T20:22:15.711Z,4.73
2023-05-16T20:24:44.226Z,4.27
2023-05-16T20:27:14.037Z,3.93
2023-05-16T20:29:42.156Z,4.23
2023-05-16T20:32:10.503Z,3.73
2023-05-16T20:34:41.576Z,3.43
2023-05-16T20:37:09.855Z,3.70
2023-05-16T20:39:39.002Z,3.63
2023-05-16T20:42:10.785Z,4.10
2023-05-16T20:44:41.769Z,4.40
2023-05-16T20:47:09.863Z,3.40
2023-05-16T20:49:39.819Z,3.93
2023-05-16T20:52:08.607Z,3.33
2023-05-16T20:54:36.902Z,3.90
2023-05-16T20:57:06.077Z,3.60
2023-05-16T20:59:34.807Z,4.30
2023-05-16T21:02:05.764Z,4.60
2023-05-16T21:04:34.267Z,4.00
2023-05-16T21:07:03.128Z,3.70
2023-05-16T21:09:32.298Z,4.73
2023-05-16T21:12:00.740Z,4.53
2023-05-16T21:14:29.215Z,4.43
2023-05-16T21:16:57.236Z,3.40
2023-05-16T21:19:26.970Z,3.10
2023-05-16T21:21:55.076Z,4.20
2023-05-16T21:24:23.122Z,4.07
2023-05-16T21:26:51.192Z,4.57
2023-05-16T21:29:19.849Z,4.50
2023-05-16T21:31:48.308Z,3.47
2023-05-16T21:34:16.715Z,3.10
2023-05-16T21:36:46.763Z,2.77
2023-05-16T21:39:15.306Z,3.60
2023-05-16T21:41:43.691Z,3.70
2023-05-16T21:44:13.856Z,3.63
2023-05-16T21:46:41.925Z,3.20
2023-05-16T21:49:10.633Z,3.47
2023-05-16T21:51:39.022Z,2.87
2023-05-16T21:54:08.648Z,3.07
2023-05-16T21:56:37.094Z,3.47
2023-05-16T21:59:05.177Z,3.90
2023-05-16T22:01:33.273Z,3.80
2023-05-16T22:04:01.357Z,2.83
2023-05-16T22:06:31.065Z,4.27
2023-05-16T22:09:00.346Z,4.47
2023-05-16T22:11:29.768Z,4.40
2023-05-16T22:13:58.434Z,5.03
2023-05-16T22:16:26.510Z,4.83
2023-05-16T22:18:55.677Z,4.00
2023-05-16T22:21:24.337Z,4.20
2023-05-16T22:23:52.395Z,4.37
2023-05-16T22:26:21.304Z,6.00
2023-05-16T22:28:51.205Z,9.03
2023-05-16T22:31:19.516Z,5.70
2023-05-16T22:33:48.107Z,4.50
2023-05-16T22:36:16.238Z,5.13
2023-05-16T22:38:44.540Z,5.70
2023-05-16T22:41:12.614Z,4.90
2023-05-16T22:43:41.295Z,3.87
2023-05-16T22:46:10.670Z,2.77
2023-05-16T22:48:39.150Z,4.13
2023-05-16T22:51:07.373Z,3.60
2023-05-16T22:53:36.097Z,3.60
2023-05-16T22:56:04.240Z,2.47
2023-05-16T22:58:32.388Z,2.63
2023-05-16T23:01:01.331Z,2.50
2023-05-16T23:03:31.503Z,3.10
2023-05-16T23:05:59.801Z,2.50
2023-05-16T23:08:28.657Z,2.43
2023-05-16T23:10:56.751Z,2.60
2023-05-16T23:13:25.723Z,2.40
2023-05-16T23:15:53.808Z,2.17
2023-05-16T23:18:22.272Z,2.10
2023-05-16T23:20:51.761Z,2.50
2023-05-16T23:23:20.420Z,2.57
2023-05-16T23:25:48.861Z,2.60
2023-05-16T23:28:17.284Z,2.30
2023-05-16T23:30:45.561Z,2.20
2023-05-16T23:33:14.161Z,2.60
2023-05-16T23:35:42.410Z,2.10
2023-05-16T23:38:12.049Z,2.50
2023-05-16T23:40:40.233Z,1.67
2023-05-16T23:43:09.067Z,2.27
2023-05-16T23:45:37.655Z,2.37
2023-05-16T23:48:06.611Z,2.37
2023-05-16T23:50:34.771Z,1.70
2023-05-16T23:53:04.113Z,1.63
2023-05-16T23:55:33.501Z,2.20
2023-05-16T23:58:02.163Z,1.90
